Glade Hill, Virginia
Current Conditions -  °F | °C
As of 1:54 AM on Thursday 23 Oct 2014 (Local Time) from KROA Reporting Station
Clear Clear  
Wind Chill: 41°   Ceiling: Unl
Heat Index: 49°   Visibility: 10mi
Dew Point: 38°   Wind: 26mph
Humidity: 66%   Direction: 330°NNW
Pressure: 30.08"   Gusts: 31mph
Location:  37.0073°N, 79.7681°W
Report Text: KROA 230554Z 33023G27KT 10SM CLR 09/03 A3008 RMK AO2 PK WND 33027/0553 SLP182 T00940033 10117 20094 58012
Loading
Personal Weather Stations






























Interactive Weather Map New forecast layout! Learn more

10-Day Weather Forecast

Advertisements
Track Severe Weather on mobile